首页
METAR-TAF:

METAR-TAF

机场 :

Storm Lake Municipal Airport

斯托姆莱克, 艾奥瓦州, 美国

纬度: 42-36N, 经度: 095-14W, 海拔: 454米

当前天气观测

该预报发布于22分钟前的01:15 UTC
风速9节,风向南转西南
温度 20°C
湿度 78%
气压 1008 hPa
能見度: 16.1公里
天空无云

METAR: KSLB 250115Z AUTO 20009KT 10SM CLR 20/16 A2976 RMK AO2

时间: 20:37 (01:37 UTC)


TAF: 丢失

超过4000个机场的气象观测和天气预报(METAR&TAF报告)。

可查询的气象台以黄色和红色小点在地图上表示。

将鼠标移到小点上方,可查看气象台名称。

然后点击查看天气观测和预报。

如需切换地图:点击带黑十字的绿色按钮放大地图;点击带横线的绿色按钮缩小地图;或者点击绿色箭头查看邻近地区的地图。


METAR-TAF: